Time;durP1;ratioP1;P1;durP2;ratioP2;P2;SDS_P1;SDS_P2;PMS_P1;PMS_P2;Temp;Humidity;BMP_temperature;BMP_pressure;BME280_temperature;BME280_humidity;BME280_pressure;Samples;Min_cycle;Max_cycle;Signal;HPM_P1;HPM_P2
2021/03/24 00:00:34;;;;;;;25.70;17.05;;;6.20;75.20;;;;;;5072878;28;20033;-65
2021/03/24 00:02:59;;;;;;;25.17;16.75;;;6.20;75.20;;;;;;5068667;28;20090;-67
2021/03/24 00:05:36;;;;;;;25.33;16.70;;;6.20;75.40;;;;;;5072026;28;20020;-66
2021/03/24 00:08:02;;;;;;;30.25;19.15;;;6.30;75.20;;;;;;5072215;28;20032;-67
2021/03/24 00:10:29;;;;;;;26.15;17.35;;;6.30;75.30;;;;;;5070935;28;20379;-66
2021/03/24 00:12:56;;;;;;;26.88;17.25;;;6.40;75.20;;;;;;5071404;28;20016;-66
2021/03/24 00:15:23;;;;;;;30.17;20.65;;;6.30;75.00;;;;;;5055148;28;20024;-66
2021/03/24 00:17:48;;;;;;;30.02;19.58;;;6.30;75.40;;;;;;5071646;28;20367;-66
2021/03/24 00:20:16;;;;;;;28.17;18.40;;;6.30;75.40;;;;;;5071575;28;20095;-66
2021/03/24 00:22:41;;;;;;;30.13;19.10;;;6.30;75.20;;;;;;5071422;28;20060;-67
2021/03/24 00:25:08;;;;;;;31.27;19.92;;;6.30;74.90;;;;;;5078948;28;20074;-67
2021/03/24 00:27:34;;;;;;;31.75;19.60;;;6.30;75.50;;;;;;5071262;28;20024;-67
2021/03/24 00:30:00;;;;;;;34.30;19.88;;;6.30;75.50;;;;;;5071605;28;20033;-67
2021/03/24 00:32:25;;;;;;;31.80;21.15;;;6.30;75.20;;;;;;5071309;28;20107;-67
2021/03/24 00:34:51;;;;;;;32.28;20.20;;;6.30;75.50;;;;;;5070301;28;20222;-65
2021/03/24 00:37:17;;;;;;;37.50;21.20;;;6.20;75.70;;;;;;5071165;28;20028;-66
2021/03/24 00:39:42;;;;;;;36.35;21.88;;;6.20;75.80;;;;;;5070372;28;20099;-64
2021/03/24 00:42:08;;;;;;;31.40;19.13;;;6.20;75.60;;;;;;5070383;28;20067;-65
2021/03/24 00:44:34;;;;;;;31.35;19.83;;;6.20;75.70;;;;;;5071601;28;20032;-66
2021/03/24 00:47:00;;;;;;;25.83;17.88;;;6.20;75.60;;;;;;5071181;28;20032;-68
2021/03/24 00:49:27;;;;;;;28.25;19.25;;;6.20;75.20;;;;;;5071194;28;20021;-65
2021/03/24 00:51:53;;;;;;;29.63;18.52;;;6.30;75.30;;;;;;5071104;28;20032;-66
2021/03/24 00:54:18;;;;;;;29.52;19.20;;;6.30;74.80;;;;;;5071293;28;20020;-66
2021/03/24 00:56:45;;;;;;;32.38;19.15;;;6.30;74.70;;;;;;5070918;28;20498;-66
2021/03/24 00:59:13;;;;;;;25.73;17.45;;;6.30;74.80;;;;;;5070889;28;20028;-66
2021/03/24 01:01:38;;;;;;;31.85;19.15;;;6.30;74.60;;;;;;5071220;28;20401;-66
2021/03/24 01:04:04;;;;;;;26.17;18.02;;;6.40;74.10;;;;;;5069751;28;20028;-65
2021/03/24 01:06:29;;;;;;;27.38;16.95;;;6.30;74.20;;;;;;5069540;28;20037;-67
2021/03/24 01:08:56;;;;;;;26.65;17.20;;;6.40;74.00;;;;;;5069929;28;20025;-67
2021/03/24 01:11:21;;;;;;;26.35;17.13;;;6.30;73.80;;;;;;5070892;28;20029;-67
2021/03/24 01:13:47;;;;;;;25.98;17.17;;;6.40;73.90;;;;;;5070959;28;20441;-66
2021/03/24 01:16:15;;;;;;;26.30;18.30;;;6.40;73.50;;;;;;5070701;28;20047;-67
2021/03/24 01:18:41;;;;;;;28.67;18.85;;;6.50;73.10;;;;;;5069759;28;20070;-66
2021/03/24 01:21:06;;;;;;;27.50;18.92;;;6.50;73.20;;;;;;5069675;28;20474;-66
2021/03/24 01:23:32;;;;;;;27.35;17.50;;;6.40;73.10;;;;;;5071517;28;20295;-67
2021/03/24 01:25:57;;;;;;;27.83;18.20;;;6.50;73.40;;;;;;5082341;28;20025;-66
2021/03/24 01:28:26;;;;;;;25.90;17.45;;;6.40;73.60;;;;;;5074329;28;20060;-66
2021/03/24 01:31:02;;;;;;;33.70;19.70;;;6.40;73.60;;;;;;5074498;28;20021;-66
2021/03/24 01:33:28;;;;;;;33.35;20.23;;;6.30;74.20;;;;;;5068492;22;20047;-67
2021/03/24 01:35:55;;;;;;;28.20;19.40;;;6.30;74.20;;;;;;5054149;28;20021;-68
2021/03/24 01:38:20;;;;;;;26.30;18.63;;;6.40;74.20;;;;;;5054228;28;20043;-67
2021/03/24 01:40:58;;;;;;;27.45;19.08;;;6.40;73.80;;;;;;5054720;28;20486;-68
2021/03/24 01:43:31;;;;;;;28.23;18.95;;;6.30;74.10;;;;;;5021370;28;20083;-68
2021/03/24 01:46:15;;;;;;;28.63;20.17;;;6.40;73.90;;;;;;5028538;28;20533;-67
2021/03/24 01:48:41;;;;;;;28.67;19.15;;;6.30;74.20;;;;;;5028865;28;20471;-68
2021/03/24 01:51:07;;;;;;;30.88;20.10;;;6.30;73.70;;;;;;5036351;28;20052;-67
2021/03/24 01:53:35;;;;;;;30.73;19.75;;;6.30;74.00;;;;;;5034415;28;20014;-67
2021/03/24 01:56:01;;;;;;;29.45;20.30;;;6.20;73.80;;;;;;5034386;28;20038;-68
2021/03/24 01:58:27;;;;;;;30.00;19.45;;;6.30;73.70;;;;;;5034508;28;20033;-67
2021/03/24 02:00:53;;;;;;;32.15;20.65;;;6.30;73.30;;;;;;5034236;28;20037;-67
2021/03/24 02:03:31;;;;;;;31.23;20.33;;;6.30;73.50;;;;;;5034823;28;20059;-67
2021/03/24 02:06:00;;;;;;;31.20;20.30;;;6.30;73.40;;;;;;5048185;28;20037;-66
2021/03/24 02:08:31;;;;;;;28.77;19.42;;;6.30;73.10;;;;;;5041607;28;20017;-67
2021/03/24 02:11:14;;;;;;;29.10;19.03;;;6.30;72.90;;;;;;5019522;28;20110;-67
2021/03/24 02:13:59;;;;;;;32.28;21.23;;;6.30;72.90;;;;;;5019914;28;20764;-67
2021/03/24 02:16:42;;;;;;;28.52;18.77;;;6.40;72.40;;;;;;5033508;28;20030;-68
2021/03/24 02:19:25;;;;;;;30.35;20.58;;;6.30;72.30;;;;;;5033687;28;20021;-68
2021/03/24 02:21:54;;;;;;;30.92;19.13;;;6.30;72.70;;;;;;5015771;28;20060;-69
2021/03/24 02:24:51;;;;;;;30.17;20.35;;;6.30;72.60;;;;;;5035621;28;20032;-69
2021/03/24 02:27:21;;;;;;;30.50;18.92;;;6.30;72.50;;;;;;5032052;28;20057;-68
2021/03/24 02:29:59;;;;;;;30.75;20.15;;;6.30;72.20;;;;;;5019142;28;20032;-69
2021/03/24 02:32:28;;;;;;;30.05;19.23;;;6.10;72.20;;;;;;5033250;28;20026;-69
2021/03/24 02:35:00;;;;;;;30.65;20.50;;;6.10;72.30;;;;;;5033256;28;20034;-68
2021/03/24 02:37:30;;;;;;;29.40;19.77;;;6.10;72.50;;;;;;5000312;28;20029;-69
2021/03/24 02:39:56;;;;;;;29.33;19.70;;;6.20;72.30;;;;;;5033551;28;20022;-69
2021/03/24 02:42:24;;;;;;;33.80;20.88;;;6.20;72.20;;;;;;5033531;28;20029;-69
2021/03/24 02:44:51;;;;;;;29.20;20.40;;;6.20;72.10;;;;;;5033821;28;20395;-68
2021/03/24 02:47:18;;;;;;;31.98;21.60;;;6.20;72.10;;;;;;5033120;28;20039;-68
2021/03/24 02:49:44;;;;;;;30.95;19.02;;;6.20;71.90;;;;;;5033670;28;20040;-67
2021/03/24 02:52:12;;;;;;;28.75;19.50;;;6.10;72.30;;;;;;5033547;28;20462;-67
2021/03/24 02:54:39;;;;;;;31.45;20.25;;;6.00;72.90;;;;;;5005058;28;20087;-67
2021/03/24 02:57:05;;;;;;;34.15;20.88;;;6.00;72.70;;;;;;5029221;28;20095;-68
2021/03/24 02:59:30;;;;;;;33.22;20.92;;;5.90;73.20;;;;;;5032962;28;20053;-68
2021/03/24 03:02:19;;;;;;;31.00;19.85;;;5.90;73.30;;;;;;5032770;28;20053;-69
2021/03/24 03:04:46;;;;;;;31.75;20.25;;;5.90;72.90;;;;;;5032797;28;20100;-67
2021/03/24 03:07:21;;;;;;;30.77;20.58;;;5.90;72.90;;;;;;5029936;28;20030;-69
2021/03/24 03:09:57;;;;;;;32.28;19.20;;;5.90;72.90;;;;;;5018459;28;20044;-69
2021/03/24 03:12:34;;;;;;;29.77;19.90;;;6.00;72.90;;;;;;5023022;28;20025;-68
2021/03/24 03:15:13;;;;;;;31.55;21.17;;;6.00;72.70;;;;;;5028342;28;20018;-69
2021/03/24 03:17:48;;;;;;;30.67;20.00;;;6.00;72.70;;;;;;5017168;28;20048;-68
2021/03/24 03:20:36;;;;;;;30.88;20.38;;;6.00;72.70;;;;;;5032556;28;20034;-68
2021/03/24 03:23:07;;;;;;;32.20;20.83;;;6.00;73.00;;;;;;5025628;28;20022;-68
2021/03/24 03:25:37;;;;;;;33.42;19.33;;;5.90;73.10;;;;;;5023683;28;20025;-68
2021/03/24 03:28:08;;;;;;;31.88;21.08;;;6.00;73.30;;;;;;5032241;28;20030;-69
2021/03/24 03:30:36;;;;;;;33.17;20.45;;;5.90;73.50;;;;;;5024480;28;20026;-69
2021/03/24 03:33:06;;;;;;;32.10;20.65;;;5.90;73.40;;;;;;5032327;28;20499;-69
2021/03/24 03:35:33;;;;;;;32.47;20.13;;;5.90;73.50;;;;;;5032726;28;20096;-68
2021/03/24 03:38:01;;;;;;;34.80;19.90;;;5.90;73.00;;;;;;5019699;28;20079;-68
2021/03/24 03:40:30;;;;;;;35.28;21.27;;;6.00;73.10;;;;;;5022518;28;20022;-67
2021/03/24 03:42:56;;;;;;;27.85;18.45;;;6.00;72.70;;;;;;5032452;28;20032;-66
2021/03/24 03:45:23;;;;;;;33.50;20.70;;;6.00;72.70;;;;;;4998873;28;20025;-69
2021/03/24 03:47:48;;;;;;;35.95;20.75;;;6.00;72.70;;;;;;5031384;28;20512;-70
2021/03/24 03:50:18;;;;;;;36.38;21.05;;;6.00;72.90;;;;;;5021782;28;20034;-66
2021/03/24 03:52:50;;;;;;;33.45;21.13;;;6.00;72.80;;;;;;5026735;28;20021;-66
2021/03/24 03:55:52;;;;;;;34.58;21.40;;;6.00;72.80;;;;;;5014940;28;20546;-67
2021/03/24 03:58:53;;;;;;;37.20;20.10;;;5.90;73.00;;;;;;5036199;28;20025;-67
2021/03/24 04:01:32;;;;;;;35.55;21.75;;;5.90;72.90;;;;;;5039744;28;20068;-67
2021/03/24 04:04:07;;;;;;;33.75;21.10;;;5.90;73.50;;;;;;5039816;28;20037;-67
2021/03/24 04:06:44;;;;;;;35.40;19.63;;;6.00;73.00;;;;;;5021870;28;20129;-66
2021/03/24 04:09:11;;;;;;;33.22;20.85;;;6.00;72.90;;;;;;5032326;28;20029;-68
2021/03/24 04:11:44;;;;;;;32.05;20.58;;;6.00;72.60;;;;;;5031722;28;20036;-67
2021/03/24 04:14:14;;;;;;;34.20;20.65;;;6.00;73.00;;;;;;5023874;28;20021;-67
2021/03/24 04:16:43;;;;;;;32.60;21.60;;;6.00;72.90;;;;;;5024223;28;20029;-67
2021/03/24 04:19:14;;;;;;;33.67;20.80;;;6.00;72.70;;;;;;5031617;28;20027;-66
2021/03/24 04:21:47;;;;;;;34.53;21.45;;;6.00;72.80;;;;;;5031730;28;20025;-66
2021/03/24 04:24:23;;;;;;;32.05;20.50;;;5.90;73.00;;;;;;5033002;28;20068;-67
2021/03/24 04:26:53;;;;;;;37.88;20.83;;;5.90;73.00;;;;;;5033625;28;20025;-68
2021/03/24 04:29:23;;;;;;;33.10;22.48;;;5.90;72.90;;;;;;5030395;28;20041;-68
2021/03/24 04:31:56;;;;;;;31.77;20.25;;;5.90;73.20;;;;;;5031220;28;20495;-68
2021/03/24 04:34:22;;;;;;;34.28;20.85;;;5.90;73.10;;;;;;5038838;28;20064;-67
2021/03/24 04:37:09;;;;;;;32.67;21.15;;;5.90;73.20;;;;;;5031027;28;20057;-69
2021/03/24 04:39:40;;;;;;;37.53;23.38;;;5.90;73.50;;;;;;5016577;28;20506;-69
2021/03/24 04:42:14;;;;;;;36.88;22.40;;;5.80;73.50;;;;;;5031307;28;20034;-68
2021/03/24 04:44:41;;;;;;;38.40;21.75;;;5.80;73.60;;;;;;5031326;28;20068;-68
2021/03/24 04:47:17;;;;;;;33.88;22.25;;;5.80;73.40;;;;;;5031057;28;20029;-69
2021/03/24 04:49:49;;;;;;;35.42;21.92;;;5.80;73.50;;;;;;5031169;28;20021;-68
2021/03/24 04:52:16;;;;;;;40.88;22.33;;;5.90;73.20;;;;;;5030913;28;20018;-67
2021/03/24 04:54:45;;;;;;;33.10;20.90;;;5.90;73.60;;;;;;5019179;28;20111;-68
2021/03/24 04:57:24;;;;;;;31.17;20.85;;;5.90;73.80;;;;;;5030683;28;20014;-67
2021/03/24 04:59:56;;;;;;;186.30;128.02;;;6.00;74.40;;;;;;5019871;28;20022;-68
2021/03/24 05:02:29;;;;;;;298.15;211.68;;;6.00;74.30;;;;;;5034970;28;20031;-70
2021/03/24 05:05:20;;;;;;;40.42;26.55;;;5.90;73.20;;;;;;5035261;28;20026;-68
2021/03/24 05:08:31;;;;;;;37.17;22.80;;;6.00;74.10;;;;;;5021746;28;20022;-68
2021/03/24 05:11:02;;;;;;;32.75;21.63;;;6.00;74.80;;;;;;4996776;28;20571;-66
2021/03/24 05:13:39;;;;;;;31.33;20.55;;;6.00;74.90;;;;;;4997539;28;20385;-68
2021/03/24 05:16:22;;;;;;;36.65;21.88;;;6.00;74.90;;;;;;5010185;28;20079;-67
2021/03/24 05:18:54;;;;;;;32.95;20.17;;;6.10;74.80;;;;;;5034759;28;20032;-67
2021/03/24 05:21:29;;;;;;;;;;;6.10;74.80;;;;;;5017706;28;20028;-67
2021/03/24 05:23:57;;;;;;;35.95;20.73;;;6.10;74.60;;;;;;5021412;28;19905;-68
2021/03/24 05:26:42;;;;;;;33.67;21.98;;;6.10;74.60;;;;;;5033055;28;20021;-68
2021/03/24 05:29:13;;;;;;;35.25;20.95;;;6.00;74.60;;;;;;5034649;28;20491;-68
2021/03/24 05:31:42;;;;;;;32.63;20.92;;;6.00;74.60;;;;;;5034144;28;20079;-68
2021/03/24 05:34:23;;;;;;;36.25;22.73;;;6.00;74.70;;;;;;5034435;28;20556;-68
2021/03/24 05:36:50;;;;;;;36.85;22.65;;;6.00;74.10;;;;;;5034075;28;20026;-67
2021/03/24 05:39:23;;;;;;;32.58;22.27;;;6.10;74.10;;;;;;5034413;28;20025;-67
2021/03/24 05:42:20;;;;;;;38.70;22.92;;;6.10;74.10;;;;;;5034108;28;20028;-67
2021/03/24 05:45:19;;;;;;;35.08;21.90;;;6.20;73.90;;;;;;5034348;28;20021;-68
2021/03/24 05:47:50;;;;;;;34.45;22.63;;;6.20;73.90;;;;;;5019520;28;20033;-68
2021/03/24 05:50:34;;;;;;;;;;;6.30;73.70;;;;;;5034352;28;20479;-68
2021/03/24 05:53:18;;;;;;;35.85;21.83;;;6.30;74.30;;;;;;5030886;28;19905;-69
2021/03/24 05:56:06;;;;;;;35.25;21.38;;;6.40;73.40;;;;;;5033962;28;20114;-67
2021/03/24 05:59:08;;;;;;;37.95;21.48;;;6.30;73.20;;;;;;5034213;28;20082;-68
2021/03/24 06:01:44;;;;;;;38.20;23.48;;;6.20;73.90;;;;;;5019588;28;20026;-68
2021/03/24 06:04:28;;;;;;;39.08;22.83;;;6.20;74.30;;;;;;5034171;28;20032;-68
2021/03/24 06:07:25;;;;;;;34.65;21.40;;;6.30;74.70;;;;;;5033836;28;20038;-67
2021/03/24 06:10:09;;;;;;;37.65;22.48;;;6.30;74.70;;;;;;5020573;28;20036;-67
2021/03/24 06:12:46;;;;;;;34.33;22.58;;;6.40;74.50;;;;;;5021784;28;20029;-67
2021/03/24 06:15:22;;;;;;;35.95;23.27;;;6.50;73.70;;;;;;5033470;28;20105;-67
2021/03/24 06:18:00;;;;;;;36.33;22.27;;;6.50;73.60;;;;;;5033710;28;20167;-68
2021/03/24 06:20:33;;;;;;;36.60;22.85;;;6.60;73.60;;;;;;5036183;28;20064;-68
2021/03/24 06:23:20;;;;;;;36.50;22.08;;;6.70;72.50;;;;;;5036674;28;20122;-68
2021/03/24 06:25:49;;;;;;;37.83;23.20;;;6.70;71.90;;;;;;5042610;28;20025;-67
2021/03/24 06:28:17;;;;;;;36.80;23.00;;;6.90;71.90;;;;;;5024464;28;20510;-69
2021/03/24 06:30:54;;;;;;;35.60;23.38;;;7.00;71.60;;;;;;5033114;28;20359;-68
2021/03/24 06:33:55;;;;;;;43.58;26.77;;;7.10;71.30;;;;;;5032920;28;20021;-68
2021/03/24 06:36:58;;;;;;;38.58;24.42;;;7.10;70.90;;;;;;5032672;28;20115;-71
2021/03/24 06:39:52;;;;;;;40.42;24.13;;;7.30;70.20;;;;;;4980696;28;20415;-68
2021/03/24 06:42:37;;;;;;;40.03;24.58;;;7.50;70.00;;;;;;5034141;28;20540;-69
2021/03/24 06:45:33;;;;;;;39.90;25.45;;;7.50;69.80;;;;;;5034717;28;20399;-68
2021/03/24 06:48:23;;;;;;;45.10;26.63;;;7.60;69.50;;;;;;5022429;28;20470;-72
2021/03/24 06:51:32;;;;;;;40.97;25.52;;;7.70;69.10;;;;;;5033237;28;20127;-73
2021/03/24 06:54:19;;;;;;;42.85;24.17;;;7.90;68.80;;;;;;5021791;28;20433;-67
2021/03/24 06:57:18;;;;;;;45.45;26.30;;;8.10;68.50;;;;;;5032733;28;20088;-68
2021/03/24 07:00:05;;;;;;;41.35;24.33;;;8.40;67.20;;;;;;5004963;28;20029;-67
2021/03/24 07:03:01;;;;;;;40.72;25.67;;;8.60;66.00;;;;;;5021592;28;20021;-68
2021/03/24 07:06:03;;;;;;;39.30;24.52;;;9.00;65.30;;;;;;5024292;28;20089;-66
2021/03/24 07:08:47;;;;;;;37.97;25.05;;;9.60;63.50;;;;;;5028268;28;20037;-69
2021/03/24 07:11:34;;;;;;;47.10;26.30;;;10.10;61.20;;;;;;5031605;28;20021;-66
2021/03/24 07:14:25;;;;;;;43.85;27.38;;;10.10;60.00;;;;;;5020065;28;20477;-69
2021/03/24 07:17:17;;;;;;;38.45;24.90;;;9.70;61.40;;;;;;5032278;28;20091;-68
2021/03/24 07:20:14;;;;;;;40.03;25.38;;;9.80;61.60;;;;;;5020590;28;20083;-68
2021/03/24 07:23:06;;;;;;;40.10;26.00;;;9.80;61.20;;;;;;5025662;28;20032;-67
2021/03/24 07:25:59;;;;;;;40.22;25.63;;;9.70;61.00;;;;;;5015295;28;20545;-69
2021/03/24 07:28:33;;;;;;;41.25;26.83;;;10.00;61.00;;;;;;5042084;28;20032;-71
2021/03/24 07:31:16;;;;;;;40.50;25.52;;;9.60;61.50;;;;;;5028756;28;20033;-70
2021/03/24 07:34:19;;;;;;;41.38;26.85;;;9.70;61.30;;;;;;5031803;28;20033;-70
2021/03/24 07:37:13;;;;;;;45.47;27.02;;;9.90;61.20;;;;;;5018177;28;20749;-68
2021/03/24 07:39:47;;;;;;;43.80;26.67;;;10.20;60.80;;;;;;5017470;28;20018;-70
2021/03/24 07:42:38;;;;;;;40.92;27.33;;;10.30;59.60;;;;;;5022913;28;20056;-69
2021/03/24 07:45:41;;;;;;;43.83;26.73;;;10.50;59.90;;;;;;5027325;28;20458;-70
2021/03/24 07:48:31;;;;;;;40.83;27.02;;;10.80;58.10;;;;;;5031969;28;20030;-70
2021/03/24 07:51:07;;;;;;;51.03;28.48;;;10.90;58.00;;;;;;5031784;28;20060;-68
2021/03/24 07:53:32;;;;;;;40.03;25.88;;;11.00;58.00;;;;;;5016579;28;20079;-66
2021/03/24 07:56:29;;;;;;;45.17;28.75;;;11.30;56.30;;;;;;5031862;28;20029;-66
2021/03/24 07:59:18;;;;;;;44.17;28.45;;;11.40;56.00;;;;;;5026370;28;20071;-69
2021/03/24 08:01:52;;;;;;;45.35;28.48;;;11.50;56.10;;;;;;5017922;28;20026;-69
2021/03/24 08:05:08;;;;;;;44.92;27.35;;;11.30;56.20;;;;;;5022690;28;20487;-68
2021/03/24 08:08:13;;;;;;;66.75;42.13;;;11.30;56.50;;;;;;5017365;28;20411;-68
2021/03/24 08:10:49;;;;;;;50.35;29.48;;;11.30;57.10;;;;;;5027191;28;20128;-70
2021/03/24 08:14:02;;;;;;;45.17;28.52;;;11.30;57.00;;;;;;5029122;28;20025;-69
2021/03/24 08:16:38;;;;;;;55.47;32.30;;;11.40;57.10;;;;;;5022151;28;20026;-68
2021/03/24 08:19:18;;;;;;;71.63;41.72;;;11.30;57.20;;;;;;5031231;28;20483;-69
2021/03/24 08:21:59;;;;;;;41.97;28.48;;;11.50;57.50;;;;;;5031316;28;20029;-67
2021/03/24 08:24:39;;;;;;;47.95;28.13;;;11.40;56.60;;;;;;5024392;28;20398;-70
2021/03/24 08:27:47;;;;;;;42.97;29.67;;;11.40;56.40;;;;;;5033343;28;20021;-70
2021/03/24 08:30:28;;;;;;;109.25;63.08;;;11.30;56.80;;;;;;5031420;28;20027;-71
2021/03/24 08:33:30;;;;;;;108.47;65.55;;;11.60;57.50;;;;;;5017142;28;20099;-69
2021/03/24 08:36:20;;;;;;;108.72;66.28;;;11.60;57.40;;;;;;5020200;28;20041;-68
2021/03/24 08:39:35;;;;;;;102.35;63.25;;;11.50;56.80;;;;;;5031254;28;20451;-69
2021/03/24 08:42:31;;;;;;;85.25;51.13;;;11.90;56.10;;;;;;4992545;28;20026;-71
2021/03/24 08:45:15;;;;;;;56.10;36.50;;;12.00;56.10;;;;;;5038542;28;20038;-68
2021/03/24 08:47:42;;;;;;;100.75;60.67;;;12.20;55.20;;;;;;5038210;28;20100;-72
2021/03/24 08:50:27;;;;;;;55.13;34.10;;;12.30;56.20;;;;;;5034887;28;20037;-69
2021/03/24 08:53:04;;;;;;;74.10;47.67;;;12.60;53.40;;;;;;5027683;28;20064;-68
2021/03/24 08:55:48;;;;;;;53.33;35.78;;;12.60;54.30;;;;;;5046067;28;20064;-69
2021/03/24 08:58:24;;;;;;;111.03;68.63;;;12.70;53.00;;;;;;5030966;28;20045;-72
2021/03/24 09:01:00;;;;;;;71.57;46.63;;;12.60;58.60;;;;;;5031184;28;20112;-73
2021/03/24 09:03:40;;;;;;;120.15;69.35;;;12.80;52.90;;;;;;5015433;28;20079;-70
2021/03/24 09:06:17;;;;;;;49.28;32.45;;;12.80;55.90;;;;;;5030938;28;20036;-71
2021/03/24 09:09:12;;;;;;;86.95;54.83;;;13.00;51.70;;;;;;5024413;28;20079;-71
2021/03/24 09:11:47;;;;;;;84.30;52.03;;;13.30;52.70;;;;;;5015263;28;20079;-71
2021/03/24 09:14:34;;;;;;;53.78;37.25;;;13.70;52.00;;;;;;5040359;28;20033;-71
2021/03/24 09:17:05;;;;;;;54.13;35.17;;;14.30;49.10;;;;;;5030692;28;20448;-71
2021/03/24 09:20:11;;;;;;;49.50;33.88;;;14.60;49.10;;;;;;5028421;28;20394;-70
2021/03/24 09:23:00;;;;;;;59.88;41.17;;;14.90;47.40;;;;;;5027435;28;20064;-67
2021/03/24 09:26:05;;;;;;;47.05;32.00;;;15.70;47.50;;;;;;5029631;28;20105;-68
2021/03/24 09:28:55;;;;;;;52.63;35.90;;;15.60;44.20;;;;;;5020181;28;20056;-68
2021/03/24 09:31:42;;;;;;;54.00;35.95;;;15.30;45.00;;;;;;5030513;28;20036;-69
2021/03/24 09:34:49;;;;;;;48.72;33.88;;;15.20;45.40;;;;;;5030637;28;20037;-70
2021/03/24 09:37:20;;;;;;;69.28;46.20;;;14.80;45.70;;;;;;5030289;28;20064;-70
2021/03/24 09:39:52;;;;;;;55.87;39.00;;;14.90;46.80;;;;;;5030800;28;20018;-70
2021/03/24 09:42:20;;;;;;;83.25;57.30;;;15.20;45.60;;;;;;5020492;28;20083;-72
2021/03/24 09:45:05;;;;;;;65.15;43.05;;;15.80;44.70;;;;;;5018003;28;20032;-72
2021/03/24 09:47:46;;;;;;;54.78;38.90;;;15.90;41.40;;;;;;5018331;28;20074;-70
2021/03/24 09:50:18;;;;;;;63.88;43.78;;;16.00;41.60;;;;;;5033865;28;20064;-71
2021/03/24 09:52:43;;;;;;;;;;;16.40;40.20;;;;;;5034537;28;20025;-69
2021/03/24 09:55:14;;;;;;;67.47;47.85;;;16.90;40.10;;;;;;5034214;28;20260;-71
2021/03/24 09:57:46;;;;;;;119.28;80.93;;;16.50;41.40;;;;;;5034436;28;20021;-69
2021/03/24 10:00:14;;;;;;;67.35;46.97;;;16.20;44.10;;;;;;5049195;28;20067;-72
2021/03/24 10:02:48;;;;;;;72.70;50.28;;;16.00;41.20;;;;;;5034010;28;20021;-71
2021/03/24 10:05:15;;;;;;;71.65;48.65;;;15.40;41.30;;;;;;5033890;28;20100;-67
2021/03/24 10:07:43;;;;;;;79.07;50.25;;;15.30;42.50;;;;;;5033546;28;20112;-67
2021/03/24 10:10:16;;;;;;;101.90;66.63;;;15.00;44.60;;;;;;5025982;28;20060;-69
2021/03/24 10:13:02;;;;;;;72.13;47.75;;;15.00;45.90;;;;;;5033735;28;20028;-69
2021/03/24 10:15:43;;;;;;;78.20;52.70;;;15.10;43.50;;;;;;5017940;28;20028;-70
2021/03/24 10:18:22;;;;;;;60.88;43.67;;;15.00;46.00;;;;;;5033538;28;20024;-69
2021/03/24 10:21:11;;;;;;;54.78;38.70;;;14.80;43.20;;;;;;5033609;28;20163;-69
2021/03/24 10:23:44;;;;;;;54.58;39.60;;;14.80;42.40;;;;;;5004050;28;20105;-68
2021/03/24 10:26:30;;;;;;;68.18;43.67;;;14.70;43.50;;;;;;5041025;28;20033;-70
2021/03/24 10:29:23;;;;;;;85.75;56.13;;;14.60;44.80;;;;;;5019225;28;20033;-69
2021/03/24 10:32:00;;;;;;;55.35;39.78;;;14.60;46.00;;;;;;5020707;28;20434;-69
2021/03/24 10:34:43;;;;;;;80.47;51.70;;;14.60;44.60;;;;;;5033275;28;20024;-70
2021/03/24 10:37:14;;;;;;;60.58;41.22;;;14.70;45.40;;;;;;5029784;28;20057;-68
2021/03/24 10:40:14;;;;;;;52.75;40.03;;;14.60;43.40;;;;;;5033233;28;20021;-69
2021/03/24 10:42:42;;;;;;;59.80;43.40;;;14.60;44.90;;;;;;5013748;28;20120;-70
2021/03/24 10:45:36;;;;;;;78.93;54.38;;;14.50;44.70;;;;;;5033168;28;20025;-70
2021/03/24 10:48:21;;;;;;;58.05;40.33;;;14.30;46.00;;;;;;5020696;28;20029;-70
2021/03/24 10:50:56;;;;;;;67.88;45.70;;;14.20;43.90;;;;;;5032983;28;20332;-70
2021/03/24 10:53:23;;;;;;;65.60;44.80;;;14.10;46.20;;;;;;5031917;28;20028;-68
2021/03/24 10:56:12;;;;;;;70.75;49.55;;;14.10;46.20;;;;;;5032967;28;20483;-70
2021/03/24 10:58:47;;;;;;;60.47;41.13;;;13.80;47.30;;;;;;5032847;28;20061;-69
2021/03/24 11:01:20;;;;;;;64.93;46.13;;;13.70;45.90;;;;;;5032727;28;20028;-69
2021/03/24 11:03:48;;;;;;;67.72;47.63;;;13.50;47.70;;;;;;5032943;28;20033;-70
2021/03/24 11:06:31;;;;;;;77.00;52.72;;;13.60;49.80;;;;;;5032559;28;20021;-69
2021/03/24 11:09:08;;;;;;;54.47;41.15;;;13.80;50.10;;;;;;5032480;28;20037;-69
2021/03/24 11:11:48;;;;;;;68.50;46.90;;;13.70;45.90;;;;;;5016865;28;20025;-70
2021/03/24 11:14:19;;;;;;;59.80;42.30;;;14.00;49.10;;;;;;5032739;28;20041;-69
2021/03/24 11:16:58;;;;;;;;;;;14.00;46.30;;;;;;5026462;28;20368;-69
2021/03/24 11:19:28;;;;;;;57.75;38.63;;;13.90;45.50;;;;;;5032481;28;19909;-69
2021/03/24 11:22:13;;;;;;;78.80;50.28;;;14.00;46.10;;;;;;5035242;28;20036;-69
2021/03/24 11:25:00;;;;;;;76.75;52.67;;;13.90;49.90;;;;;;5037353;28;20029;-69
2021/03/24 11:27:46;;;;;;;54.90;39.00;;;13.90;50.90;;;;;;5016076;28;20025;-69
2021/03/24 11:30:26;;;;;;;72.50;49.00;;;14.00;46.40;;;;;;5032202;28;20117;-71
2021/03/24 11:32:54;;;;;;;56.88;41.05;;;13.80;50.60;;;;;;5032166;28;20438;-69
2021/03/24 11:35:32;;;;;;;58.60;42.38;;;13.90;48.20;;;;;;5032149;28;20013;-69
2021/03/24 11:38:15;;;;;;;56.47;37.90;;;14.10;47.40;;;;;;5031611;28;20021;-69
2021/03/24 11:40:52;;;;;;;56.67;41.15;;;14.10;46.80;;;;;;5032165;28;20061;-70
2021/03/24 11:43:23;;;;;;;59.70;40.35;;;14.10;48.60;;;;;;5032106;28;20544;-70
2021/03/24 11:45:51;;;;;;;51.63;38.38;;;14.40;47.60;;;;;;5032351;28;20347;-70
2021/03/24 11:48:40;;;;;;;53.78;38.38;;;14.50;46.20;;;;;;5021702;28;20500;-70
2021/03/24 11:51:20;;;;;;;58.75;39.92;;;14.40;45.90;;;;;;5016303;28;20029;-69
2021/03/24 11:54:00;;;;;;;56.92;39.30;;;14.30;48.00;;;;;;5031951;28;20189;-68
2021/03/24 11:56:43;;;;;;;53.75;38.80;;;14.20;46.90;;;;;;5031199;28;20017;-70
2021/03/24 11:59:15;;;;;;;56.70;40.65;;;13.80;46.70;;;;;;5031907;28;20103;-70
2021/03/24 12:02:21;;;;;;;50.92;36.88;;;13.70;49.20;;;;;;5031794;28;20025;-70
2021/03/24 12:04:55;;;;;;;55.90;40.03;;;13.60;48.50;;;;;;5026188;28;20069;-69
2021/03/24 12:07:34;;;;;;;57.83;38.85;;;13.60;48.80;;;;;;5031625;28;20518;-70
2021/03/24 12:10:18;;;;;;;58.42;41.15;;;13.40;48.30;;;;;;5031075;28;20384;-69
2021/03/24 12:12:43;;;;;;;55.80;38.75;;;13.30;51.20;;;;;;5036893;28;20029;-69
2021/03/24 12:15:18;;;;;;;56.97;38.35;;;13.40;51.70;;;;;;5043230;28;20021;-68
2021/03/24 12:17:44;;;;;;;52.40;35.50;;;13.50;48.80;;;;;;5031321;28;20091;-72
2021/03/24 12:20:16;;;;;;;48.47;33.00;;;13.50;48.70;;;;;;5020105;28;20609;-69
2021/03/24 12:22:57;;;;;;;55.42;38.25;;;13.50;48.50;;;;;;5033276;28;20041;-70
2021/03/24 12:25:25;;;;;;;57.25;39.50;;;13.70;49.00;;;;;;5012466;28;20017;-68
2021/03/24 12:27:52;;;;;;;59.70;42.35;;;13.80;50.20;;;;;;5031035;28;20048;-68
2021/03/24 12:30:44;;;;;;;60.38;41.60;;;14.00;51.00;;;;;;5031390;28;20549;-69
2021/03/24 12:33:15;;;;;;;58.38;40.30;;;13.90;51.70;;;;;;5031121;28;20040;-69
2021/03/24 12:35:45;;;;;;;59.80;40.17;;;13.70;49.80;;;;;;5031532;28;20169;-70
2021/03/24 12:38:20;;;;;;;52.88;37.95;;;13.40;51.50;;;;;;5031029;28;20018;-70
2021/03/24 12:40:52;;;;;;;54.80;38.38;;;13.40;51.80;;;;;;5031472;28;20032;-70
2021/03/24 12:43:23;;;;;;;52.08;36.97;;;13.40;52.10;;;;;;5031491;28;20107;-71
2021/03/24 12:45:49;;;;;;;52.00;35.67;;;13.20;51.20;;;;;;5017115;28;20076;-70
2021/03/24 12:48:25;;;;;;;51.20;36.95;;;13.10;50.80;;;;;;5022496;28;20026;-72
2021/03/24 12:51:09;;;;;;;56.55;36.95;;;13.30;52.20;;;;;;5031046;28;20029;-69
2021/03/24 12:54:04;;;;;;;56.20;36.97;;;13.20;52.20;;;;;;5015622;28;20030;-68
2021/03/24 12:56:50;;;;;;;47.55;34.58;;;13.30;52.70;;;;;;5031071;28;20030;-71
2021/03/24 12:59:22;;;;;;;54.40;36.63;;;13.40;51.70;;;;;;5031231;28;20025;-68
2021/03/24 13:02:09;;;;;;;;;;;13.30;50.40;;;;;;5017593;28;20025;-70
2021/03/24 13:04:56;;;;;;;52.88;35.88;;;13.20;50.70;;;;;;5031784;28;19909;-70
2021/03/24 13:07:49;;;;;;;54.58;35.28;;;13.00;52.80;;;;;;5031117;28;20479;-72
2021/03/24 13:10:33;;;;;;;53.15;35.25;;;13.00;50.80;;;;;;5031426;28;20029;-70
2021/03/24 13:13:17;;;;;;;52.22;34.00;;;12.90;53.50;;;;;;5031102;28;20025;-70
2021/03/24 13:15:49;;;;;;;47.90;32.75;;;13.00;54.20;;;;;;5030990;28;20024;-69
2021/03/24 13:18:40;;;;;;;56.03;36.00;;;13.00;51.80;;;;;;5030756;28;20026;-69
2021/03/24 13:21:18;;;;;;;51.15;33.97;;;13.00;53.40;;;;;;5034045;28;20021;-68
2021/03/24 13:24:05;;;;;;;47.10;33.63;;;13.00;52.00;;;;;;5020299;28;20036;-70
2021/03/24 13:26:40;;;;;;;45.67;32.20;;;13.00;50.90;;;;;;5036040;28;20036;-70